sensor_id;sensor_type;location;lat;lon;timestamp;pressure;altitude;pressure_sealevel;temperature;humidity
71974;BME280;59840;52.122;5.404;2023-08-12T00:01:03;101889.75;;;18.38;100.00
71974;BME280;59840;52.122;5.404;2023-08-12T00:03:29;101893.22;;;18.38;100.00
71974;BME280;59840;52.122;5.404;2023-08-12T00:05:56;101901.00;;;18.35;100.00
71974;BME280;59840;52.122;5.404;2023-08-12T00:08:24;101899.13;;;18.30;100.00
71974;BME280;59840;52.122;5.404;2023-08-12T00:10:51;101894.88;;;18.34;100.00
71974;BME280;59840;52.122;5.404;2023-08-12T00:13:17;101894.28;;;18.42;100.00
71974;BME280;59840;52.122;5.404;2023-08-12T00:15:44;101892.94;;;18.45;100.00
71974;BME280;59840;52.122;5.404;2023-08-12T00:18:11;101908.19;;;18.39;100.00
71974;BME280;59840;52.122;5.404;2023-08-12T00:20:38;101902.06;;;18.34;100.00
71974;BME280;59840;52.122;5.404;2023-08-12T00:23:04;101886.53;;;18.41;100.00
71974;BME280;59840;52.122;5.404;2023-08-12T00:25:31;101885.19;;;18.43;100.00
71974;BME280;59840;52.122;5.404;2023-08-12T00:27:57;101891.34;;;18.39;100.00
71974;BME280;59840;52.122;5.404;2023-08-12T00:30:24;101891.38;;;18.34;100.00
71974;BME280;59840;52.122;5.404;2023-08-12T00:32:50;101880.16;;;18.32;100.00
71974;BME280;59840;52.122;5.404;2023-08-12T00:35:17;101884.44;;;18.33;100.00
71974;BME280;59840;52.122;5.404;2023-08-12T00:37:45;101878.28;;;18.32;100.00
71974;BME280;59840;52.122;5.404;2023-08-12T00:40:12;101882.03;;;18.31;100.00
71974;BME280;59840;52.122;5.404;2023-08-12T00:42:39;101869.50;;;18.27;100.00
71974;BME280;59840;52.122;5.404;2023-08-12T00:45:09;101865.75;;;18.23;100.00
71974;BME280;59840;52.122;5.404;2023-08-12T00:47:37;101867.34;;;18.19;100.00
71974;BME280;59840;52.122;5.404;2023-08-12T00:50:04;101858.28;;;18.20;100.00
71974;BME280;59840;52.122;5.404;2023-08-12T00:52:31;101851.06;;;18.20;100.00
71974;BME280;59840;52.122;5.404;2023-08-12T00:54:58;101851.88;;;18.21;100.00
71974;BME280;59840;52.122;5.404;2023-08-12T00:57:25;101842.25;;;18.20;100.00
71974;BME280;59840;52.122;5.404;2023-08-12T00:59:54;101848.94;;;18.17;100.00
71974;BME280;59840;52.122;5.404;2023-08-12T01:02:22;101853.47;;;18.12;100.00
71974;BME280;59840;52.122;5.404;2023-08-12T01:04:48;101850.28;;;18.09;100.00
71974;BME280;59840;52.122;5.404;2023-08-12T01:07:15;101838.53;;;18.05;100.00
71974;BME280;59840;52.122;5.404;2023-08-12T01:09:41;101843.59;;;18.07;100.00
71974;BME280;59840;52.122;5.404;2023-08-12T01:12:29;101831.84;;;18.08;100.00
71974;BME280;59840;52.122;5.404;2023-08-12T01:15:08;101831.56;;;18.09;100.00
71974;BME280;59840;52.122;5.404;2023-08-12T01:17:37;101837.19;;;18.08;100.00
71974;BME280;59840;52.122;5.404;2023-08-12T01:20:06;101839.06;;;18.02;100.00
71974;BME280;59840;52.122;5.404;2023-08-12T01:22:40;101836.16;;;17.94;100.00
71974;BME280;59840;52.122;5.404;2023-08-12T01:25:07;101834.81;;;17.86;100.00
71974;BME280;59840;52.122;5.404;2023-08-12T01:27:35;101828.41;;;17.77;100.00
71974;BME280;59840;52.122;5.404;2023-08-12T01:30:04;101823.59;;;17.84;100.00
71974;BME280;59840;52.122;5.404;2023-08-12T01:35:19;101820.13;;;17.84;100.00
71974;BME280;59840;52.122;5.404;2023-08-12T01:37:50;101824.13;;;17.86;100.00
71974;BME280;59840;52.122;5.404;2023-08-12T01:40:18;101817.47;;;17.89;100.00
71974;BME280;59840;52.122;5.404;2023-08-12T01:42:45;101803.84;;;17.90;100.00
71974;BME280;59840;52.122;5.404;2023-08-12T01:45:12;101797.44;;;17.96;100.00
71974;BME280;59840;52.122;5.404;2023-08-12T01:47:43;101800.91;;;17.97;100.00
71974;BME280;59840;52.122;5.404;2023-08-12T01:50:10;101802.25;;;17.94;100.00
71974;BME280;59840;52.122;5.404;2023-08-12T01:52:36;101794.78;;;17.91;100.00
71974;BME280;59840;52.122;5.404;2023-08-12T01:55:03;101803.59;;;17.87;100.00
71974;BME280;59840;52.122;5.404;2023-08-12T01:57:30;101792.63;;;17.83;100.00
71974;BME280;59840;52.122;5.404;2023-08-12T01:59:57;101791.03;;;17.87;100.00
71974;BME280;59840;52.122;5.404;2023-08-12T02:02:23;101792.09;;;17.91;100.00
71974;BME280;59840;52.122;5.404;2023-08-12T02:04:50;101783.56;;;17.94;100.00
71974;BME280;59840;52.122;5.404;2023-08-12T02:07:16;101781.94;;;17.93;100.00
71974;BME280;59840;52.122;5.404;2023-08-12T02:09:43;101779.00;;;17.95;100.00
71974;BME280;59840;52.122;5.404;2023-08-12T02:12:09;101780.34;;;17.97;100.00
71974;BME280;59840;52.122;5.404;2023-08-12T02:14:36;101776.34;;;18.00;100.00
71974;BME280;59840;52.122;5.404;2023-08-12T02:17:03;101775.53;;;17.99;100.00
71974;BME280;59840;52.122;5.404;2023-08-12T02:19:32;101777.13;;;17.95;100.00
71974;BME280;59840;52.122;5.404;2023-08-12T02:22:02;101773.94;;;17.93;100.00
71974;BME280;59840;52.122;5.404;2023-08-12T02:24:30;101773.69;;;17.90;100.00
71974;BME280;59840;52.122;5.404;2023-08-12T02:26:56;101773.94;;;17.88;100.00
71974;BME280;59840;52.122;5.404;2023-08-12T02:29:23;101767.81;;;17.88;100.00
71974;BME280;59840;52.122;5.404;2023-08-12T02:31:49;101765.41;;;17.91;100.00
71974;BME280;59840;52.122;5.404;2023-08-12T02:34:16;101760.03;;;17.96;100.00
71974;BME280;59840;52.122;5.404;2023-08-12T02:36:42;101765.13;;;17.98;100.00
71974;BME280;59840;52.122;5.404;2023-08-12T02:39:09;101761.66;;;17.97;100.00
71974;BME280;59840;52.122;5.404;2023-08-12T02:41:36;101758.72;;;17.94;100.00
71974;BME280;59840;52.122;5.404;2023-08-12T02:44:02;101757.66;;;17.90;100.00
71974;BME280;59840;52.122;5.404;2023-08-12T02:46:29;101754.97;;;17.90;100.00
71974;BME280;59840;52.122;5.404;2023-08-12T02:48:55;101752.03;;;17.91;100.00
71974;BME280;59840;52.122;5.404;2023-08-12T02:51:22;101754.44;;;17.93;100.00
71974;BME280;59840;52.122;5.404;2023-08-12T02:53:48;101750.97;;;17.92;100.00
71974;BME280;59840;52.122;5.404;2023-08-12T02:56:15;101744.56;;;17.93;100.00
71974;BME280;59840;52.122;5.404;2023-08-12T02:58:41;101748.84;;;17.94;100.00
71974;BME280;59840;52.122;5.404;2023-08-12T03:01:08;101743.47;;;17.99;100.00
71974;BME280;59840;52.122;5.404;2023-08-12T03:03:35;101736.50;;;18.03;100.00
71974;BME280;59840;52.122;5.404;2023-08-12T03:06:01;101731.69;;;18.05;100.00
71974;BME280;59840;52.122;5.404;2023-08-12T03:08:28;101730.34;;;18.08;100.00
71974;BME280;59840;52.122;5.404;2023-08-12T03:10:59;101728.22;;;18.10;100.00
71974;BME280;59840;52.122;5.404;2023-08-12T03:13:27;101720.19;;;18.10;100.00
71974;BME280;59840;52.122;5.404;2023-08-12T03:15:53;101712.19;;;18.10;100.00
71974;BME280;59840;52.122;5.404;2023-08-12T03:18:20;101717.25;;;18.12;100.00
71974;BME280;59840;52.122;5.404;2023-08-12T03:20:47;101714.59;;;18.12;100.00
71974;BME280;59840;52.122;5.404;2023-08-12T03:23:14;101714.03;;;18.15;100.00
71974;BME280;59840;52.122;5.404;2023-08-12T03:25:41;101719.09;;;18.16;100.00
71974;BME280;59840;52.122;5.404;2023-08-12T03:28:07;101709.22;;;18.17;100.00
71974;BME280;59840;52.122;5.404;2023-08-12T03:30:34;101709.75;;;18.19;100.00
71974;BME280;59840;52.122;5.404;2023-08-12T03:33:00;101709.47;;;18.20;100.00
71974;BME280;59840;52.122;5.404;2023-08-12T03:35:27;101710.81;;;18.23;100.00
71974;BME280;59840;52.122;5.404;2023-08-12T03:37:54;101699.84;;;18.24;100.00
71974;BME280;59840;52.122;5.404;2023-08-12T03:40:20;101692.88;;;18.28;100.00
71974;BME280;59840;52.122;5.404;2023-08-12T03:42:47;101694.22;;;18.31;100.00
71974;BME280;59840;52.122;5.404;2023-08-12T03:45:13;101691.00;;;18.34;100.00
71974;BME280;59840;52.122;5.404;2023-08-12T03:47:40;101690.19;;;18.33;100.00
71974;BME280;59840;52.122;5.404;2023-08-12T03:50:07;101682.69;;;18.35;100.00
71974;BME280;59840;52.122;5.404;2023-08-12T03:52:33;101679.19;;;18.40;100.00
71974;BME280;59840;52.122;5.404;2023-08-12T03:55:00;101679.69;;;18.42;100.00
71974;BME280;59840;52.122;5.404;2023-08-12T03:57:27;101683.97;;;18.43;100.00
71974;BME280;59840;52.122;5.404;2023-08-12T03:59:53;101674.59;;;18.46;100.00
71974;BME280;59840;52.122;5.404;2023-08-12T04:02:20;101661.75;;;18.53;100.00
71974;BME280;59840;52.122;5.404;2023-08-12T04:04:46;101667.63;;;18.50;100.00
71974;BME280;59840;52.122;5.404;2023-08-12T04:07:13;101663.63;;;18.47;100.00
71974;BME280;59840;52.122;5.404;2023-08-12T04:09:40;101668.47;;;18.45;100.00
71974;BME280;59840;52.122;5.404;2023-08-12T04:12:07;101654.31;;;18.45;100.00
71974;BME280;59840;52.122;5.404;2023-08-12T04:14:33;101643.56;;;18.55;100.00
71974;BME280;59840;52.122;5.404;2023-08-12T04:17:00;101649.91;;;18.69;100.00
71974;BME280;59840;52.122;5.404;2023-08-12T04:19:26;101652.09;;;18.62;100.00
71974;BME280;59840;52.122;5.404;2023-08-12T04:21:53;101650.00;;;18.49;100.00
71974;BME280;59840;52.122;5.404;2023-08-12T04:24:19;101646.53;;;18.48;100.00
71974;BME280;59840;52.122;5.404;2023-08-12T04:26:46;101651.88;;;18.48;100.00
71974;BME280;59840;52.122;5.404;2023-08-12T04:29:12;101655.59;;;18.52;100.00
71974;BME280;59840;52.122;5.404;2023-08-12T04:31:40;101654.25;;;18.55;100.00
71974;BME280;59840;52.122;5.404;2023-08-12T04:34:07;101649.69;;;18.60;100.00
71974;BME280;59840;52.122;5.404;2023-08-12T04:36:33;101657.16;;;18.63;100.00
71974;BME280;59840;52.122;5.404;2023-08-12T04:39:00;101645.41;;;18.64;100.00
71974;BME280;59840;52.122;5.404;2023-08-12T04:41:27;101637.06;;;18.71;100.00
71974;BME280;59840;52.122;5.404;2023-08-12T04:43:54;101629.25;;;18.74;100.00
71974;BME280;59840;52.122;5.404;2023-08-12T04:46:20;101621.19;;;18.80;100.00
71974;BME280;59840;52.122;5.404;2023-08-12T04:48:47;101619.25;;;18.90;100.00
71974;BME280;59840;52.122;5.404;2023-08-12T04:51:14;101607.47;;;18.91;100.00
71974;BME280;59840;52.122;5.404;2023-08-12T04:53:41;101608.28;;;18.92;100.00
71974;BME280;59840;52.122;5.404;2023-08-12T04:56:07;101615.50;;;18.91;100.00
71974;BME280;59840;52.122;5.404;2023-08-12T04:58:34;101601.28;;;18.96;100.00
71974;BME280;59840;52.122;5.404;2023-08-12T05:01:01;101599.69;;;18.95;100.00
71974;BME280;59840;52.122;5.404;2023-08-12T05:03:27;101599.69;;;18.95;100.00
71974;BME280;59840;52.122;5.404;2023-08-12T05:05:54;101602.88;;;18.97;100.00
71974;BME280;59840;52.122;5.404;2023-08-12T05:08:21;101595.91;;;19.01;100.00
71974;BME280;59840;52.122;5.404;2023-08-12T05:10:48;101590.53;;;19.01;100.00
71974;BME280;59840;52.122;5.404;2023-08-12T05:13:15;101594.81;;;19.02;100.00
71974;BME280;59840;52.122;5.404;2023-08-12T05:15:45;101594.00;;;19.01;100.00
71974;BME280;59840;52.122;5.404;2023-08-12T05:18:13;101602.56;;;19.03;100.00
71974;BME280;59840;52.122;5.404;2023-08-12T05:20:41;101606.03;;;19.04;100.00
71974;BME280;59840;52.122;5.404;2023-08-12T05:23:12;101598.00;;;19.04;100.00
71974;BME280;59840;52.122;5.404;2023-08-12T05:25:39;101601.16;;;19.06;100.00
71974;BME280;59840;52.122;5.404;2023-08-12T05:28:06;101596.94;;;19.05;100.00
71974;BME280;59840;52.122;5.404;2023-08-12T05:30:34;101598.22;;;19.07;100.00
71974;BME280;59840;52.122;5.404;2023-08-12T05:33:01;101603.28;;;19.09;100.00
71974;BME280;59840;52.122;5.404;2023-08-12T05:35:33;101596.56;;;19.12;100.00
71974;BME280;59840;52.122;5.404;2023-08-12T05:38:00;101607.78;;;19.14;100.00
71974;BME280;59840;52.122;5.404;2023-08-12T05:40:27;101603.53;;;19.13;100.00
71974;BME280;59840;52.122;5.404;2023-08-12T05:42:54;101602.72;;;19.12;100.00
71974;BME280;59840;52.122;5.404;2023-08-12T05:45:21;101604.03;;;19.15;100.00
71974;BME280;59840;52.122;5.404;2023-08-12T05:47:47;101598.97;;;19.13;100.00
71974;BME280;59840;52.122;5.404;2023-08-12T05:50:14;101603.25;;;19.14;100.00
71974;BME280;59840;52.122;5.404;2023-08-12T05:52:40;101597.09;;;19.14;100.00
71974;BME280;59840;52.122;5.404;2023-08-12T05:55:07;101601.63;;;19.13;100.00
71974;BME280;59840;52.122;5.404;2023-08-12T05:57:34;101597.88;;;19.14;100.00
71974;BME280;59840;52.122;5.404;2023-08-12T06:00:01;101597.88;;;19.14;100.00
71974;BME280;59840;52.122;5.404;2023-08-12T06:02:28;101598.41;;;19.16;100.00
71974;BME280;59840;52.122;5.404;2023-08-12T06:04:54;101595.22;;;19.14;100.00
71974;BME280;59840;52.122;5.404;2023-08-12T06:07:21;101600.56;;;19.14;100.00
71974;BME280;59840;52.122;5.404;2023-08-12T06:09:49;101596.28;;;19.13;100.00
71974;BME280;59840;52.122;5.404;2023-08-12T06:12:16;101601.63;;;19.13;100.00
71974;BME280;59840;52.122;5.404;2023-08-12T06:14:43;101593.91;;;19.12;100.00
71974;BME280;59840;52.122;5.404;2023-08-12T06:17:10;101594.19;;;19.10;100.00
71974;BME280;59840;52.122;5.404;2023-08-12T06:19:36;101593.09;;;19.11;100.00
71974;BME280;59840;52.122;5.404;2023-08-12T06:22:03;101589.63;;;19.11;100.00
71974;BME280;59840;52.122;5.404;2023-08-12T06:24:30;101594.19;;;19.10;100.00
71974;BME280;59840;52.122;5.404;2023-08-12T06:26:56;101596.06;;;19.09;100.00
71974;BME280;59840;52.122;5.404;2023-08-12T06:29:23;101597.66;;;19.11;100.00
71974;BME280;59840;52.122;5.404;2023-08-12T06:31:49;101597.94;;;19.09;100.00
71974;BME280;59840;52.122;5.404;2023-08-12T06:34:16;101602.75;;;19.07;100.00
71974;BME280;59840;52.122;5.404;2023-08-12T06:37:28;101604.16;;;19.04;100.00
71974;BME280;59840;52.122;5.404;2023-08-12T06:39:54;101608.19;;;19.02;100.00
71974;BME280;59840;52.122;5.404;2023-08-12T06:42:22;101600.72;;;18.99;100.00
71974;BME280;59840;52.122;5.404;2023-08-12T06:44:56;101602.38;;;18.95;100.00
71974;BME280;59840;52.122;5.404;2023-08-12T06:47:35;101594.09;;;18.91;100.00
71974;BME280;59840;52.122;5.404;2023-08-12T06:50:02;101588.75;;;18.91;100.00
71974;BME280;59840;52.122;5.404;2023-08-12T06:52:28;101589.56;;;18.92;100.00
71974;BME280;59840;52.122;5.404;2023-08-12T06:54:55;101584.19;;;18.92;100.00
71974;BME280;59840;52.122;5.404;2023-08-12T06:57:22;101578.06;;;18.91;100.00
71974;BME280;59840;52.122;5.404;2023-08-12T06:59:48;101581.53;;;18.92;100.00
71974;BME280;59840;52.122;5.404;2023-08-12T07:02:15;101577.78;;;18.93;100.00
71974;BME280;59840;52.122;5.404;2023-08-12T07:04:41;101581.25;;;18.93;100.00
71974;BME280;59840;52.122;5.404;2023-08-12T07:07:08;101576.69;;;18.94;100.00
71974;BME280;59840;52.122;5.404;2023-08-12T07:09:34;101576.69;;;18.94;100.00
71974;BME280;59840;52.122;5.404;2023-08-12T07:12:01;101581.25;;;18.93;100.00
71974;BME280;59840;52.122;5.404;2023-08-12T07:14:28;101575.09;;;18.93;100.00
71974;BME280;59840;52.122;5.404;2023-08-12T07:16:54;101565.19;;;18.93;100.00
71974;BME280;59840;52.122;5.404;2023-08-12T07:19:21;101572.72;;;18.91;100.00
71974;BME280;59840;52.122;5.404;2023-08-12T07:21:48;101561.50;;;18.89;100.00
71974;BME280;59840;52.122;5.404;2023-08-12T07:24:15;101554.28;;;18.90;100.00
71974;BME280;59840;52.122;5.404;2023-08-12T07:26:41;101563.09;;;18.90;100.00
71974;BME280;59840;52.122;5.404;2023-08-12T07:29:08;101561.22;;;18.91;100.00
71974;BME280;59840;52.122;5.404;2023-08-12T07:31:35;101563.09;;;18.90;100.00
71974;BME280;59840;52.122;5.404;2023-08-12T07:34:01;101559.84;;;18.93;100.00
71974;BME280;59840;52.122;5.404;2023-08-12T07:36:28;101553.19;;;18.91;100.00
71974;BME280;59840;52.122;5.404;2023-08-12T07:38:55;101554.78;;;18.92;100.00
71974;BME280;59840;52.122;5.404;2023-08-12T07:41:39;101547.28;;;18.94;100.00
71974;BME280;59840;52.122;5.404;2023-08-12T07:48:06;101544.03;;;18.97;100.00
71974;BME280;59840;52.122;5.404;2023-08-12T07:50:33;101545.63;;;18.98;100.00
71974;BME280;59840;52.122;5.404;2023-08-12T07:52:59;101548.03;;;18.99;100.00
71974;BME280;59840;52.122;5.404;2023-08-12T07:59:17;101545.59;;;19.03;100.00
71974;BME280;59840;52.122;5.404;2023-08-12T08:01:43;101554.41;;;19.03;100.00
71974;BME280;59840;52.122;5.404;2023-08-12T08:04:10;101555.22;;;19.04;100.00
71974;BME280;59840;52.122;5.404;2023-08-12T08:06:37;101549.84;;;19.04;100.00
71974;BME280;59840;52.122;5.404;2023-08-12T08:09:03;101553.63;;;19.03;100.00
71974;BME280;59840;52.122;5.404;2023-08-12T08:11:31;101549.84;;;19.04;100.00
71974;BME280;59840;52.122;5.404;2023-08-12T08:13:58;101551.16;;;19.06;100.00
71974;BME280;59840;52.122;5.404;2023-08-12T08:16:24;101548.69;;;19.10;100.00
71974;BME280;59840;52.122;5.404;2023-08-12T08:18:51;101553.78;;;19.12;100.00
71974;BME280;59840;52.122;5.404;2023-08-12T08:21:21;101555.66;;;19.11;100.00
71974;BME280;59840;52.122;5.404;2023-08-12T08:27:39;101550.53;;;19.15;100.00
71974;BME280;59840;52.122;5.404;2023-08-12T08:37:51;101556.06;;;19.23;100.00
71974;BME280;59840;52.122;5.404;2023-08-12T08:40:31;101556.56;;;19.25;100.00
71974;BME280;59840;52.122;5.404;2023-08-12T08:43:02;101564.31;;;19.27;100.00
71974;BME280;59840;52.122;5.404;2023-08-12T08:45:31;101564.09;;;19.23;100.00
71974;BME280;59840;52.122;5.404;2023-08-12T08:48:00;101557.66;;;19.24;100.00
71974;BME280;59840;52.122;5.404;2023-08-12T08:50:29;101556.56;;;19.25;100.00
71974;BME280;59840;52.122;5.404;2023-08-12T08:52:57;101565.69;;;19.24;100.00
71974;BME280;59840;52.122;5.404;2023-08-12T08:55:24;101574.22;;;19.26;100.00
71974;BME280;59840;52.122;5.404;2023-08-12T08:57:51;101574.78;;;19.23;100.00
71974;BME280;59840;52.122;5.404;2023-08-12T09:00:28;101568.41;;;19.19;100.00
71974;BME280;59840;52.122;5.404;2023-08-12T09:02:57;101581.28;;;19.17;100.00
71974;BME280;59840;52.122;5.404;2023-08-12T09:05:25;101590.47;;;19.06;100.00
71974;BME280;59840;52.122;5.404;2023-08-12T09:07:55;101598.66;;;18.91;100.00
71974;BME280;59840;52.122;5.404;2023-08-12T09:10:23;101603.88;;;18.72;100.00
71974;BME280;59840;52.122;5.404;2023-08-12T09:12:55;101612.84;;;18.52;100.00
71974;BME280;59840;52.122;5.404;2023-08-12T09:15:22;101609.75;;;18.35;100.00
71974;BME280;59840;52.122;5.404;2023-08-12T09:17:48;101607.16;;;18.25;100.00
71974;BME280;59840;52.122;5.404;2023-08-12T09:20:15;101612.25;;;18.16;100.00
71974;BME280;59840;52.122;5.404;2023-08-12T09:22:43;101602.09;;;18.18;100.00
71974;BME280;59840;52.122;5.404;2023-08-12T09:29:00;101588.78;;;18.13;100.00
71974;BME280;59840;52.122;5.404;2023-08-12T09:31:28;101591.75;;;18.06;100.00
71974;BME280;59840;52.122;5.404;2023-08-12T09:34:05;101606.72;;;18.02;100.00
71974;BME280;59840;52.122;5.404;2023-08-12T09:36:33;101608.91;;;17.95;100.00
71974;BME280;59840;52.122;5.404;2023-08-12T09:39:08;101610.75;;;18.00;100.00
71974;BME280;59840;52.122;5.404;2023-08-12T09:41:38;101617.44;;;17.97;100.00
71974;BME280;59840;52.122;5.404;2023-08-12T09:44:05;101623.88;;;17.91;100.00
71974;BME280;59840;52.122;5.404;2023-08-12T09:46:35;101630.19;;;18.05;100.00
71974;BME280;59840;52.122;5.404;2023-08-12T09:49:01;101629.66;;;18.08;100.00
71974;BME280;59840;52.122;5.404;2023-08-12T09:51:35;101628.56;;;18.15;100.00
71974;BME280;59840;52.122;5.404;2023-08-12T09:54:02;101636.00;;;18.23;100.00
71974;BME280;59840;52.122;5.404;2023-08-12T09:56:33;101642.09;;;18.33;100.00
71974;BME280;59840;52.122;5.404;2023-08-12T09:59:01;101640.97;;;18.39;100.00
71974;BME280;59840;52.122;5.404;2023-08-12T10:01:29;101653.75;;;18.48;100.00
71974;BME280;59840;52.122;5.404;2023-08-12T10:03:56;101646.00;;;18.46;100.00
71974;BME280;59840;52.122;5.404;2023-08-12T10:06:23;101650.81;;;18.44;100.00
71974;BME280;59840;52.122;5.404;2023-08-12T10:08:50;101655.59;;;18.52;100.00
71974;BME280;59840;52.122;5.404;2023-08-12T10:11:18;101640.59;;;18.56;100.00
71974;BME280;59840;52.122;5.404;2023-08-12T10:13:45;101641.88;;;18.69;100.00
71974;BME280;59840;52.122;5.404;2023-08-12T10:16:13;101631.59;;;18.86;100.00
71974;BME280;59840;52.122;5.404;2023-08-12T10:18:41;101621.88;;;18.95;100.00
71974;BME280;59840;52.122;5.404;2023-08-12T10:21:09;101627.47;;;18.99;100.00
71974;BME280;59840;52.122;5.404;2023-08-12T10:23:37;101631.78;;;18.95;100.00
71974;BME280;59840;52.122;5.404;2023-08-12T10:26:06;101633.78;;;19.08;100.00
71974;BME280;59840;52.122;5.404;2023-08-12T10:28:34;101643.78;;;19.26;100.00
71974;BME280;59840;52.122;5.404;2023-08-12T10:31:07;101634.59;;;19.37;100.00
71974;BME280;59840;52.122;5.404;2023-08-12T10:33:38;101632.56;;;19.53;100.00
71974;BME280;59840;52.122;5.404;2023-08-12T10:36:07;101641.13;;;19.55;100.00
71974;BME280;59840;52.122;5.404;2023-08-12T10:38:34;101626.81;;;19.65;100.00
71974;BME280;59840;52.122;5.404;2023-08-12T10:41:22;101629.50;;;19.65;100.00
71974;BME280;59840;52.122;5.404;2023-08-12T10:46:23;101631.78;;;19.53;100.00
71974;BME280;59840;52.122;5.404;2023-08-12T10:49:19;101646.47;;;19.55;100.00
71974;BME280;59840;52.122;5.404;2023-08-12T10:51:49;101647.22;;;19.61;100.00
71974;BME280;59840;52.122;5.404;2023-08-12T10:54:23;101642.59;;;19.66;100.00
71974;BME280;59840;52.122;5.404;2023-08-12T11:02:28;101639.50;;;20.02;100.00
71974;BME280;59840;52.122;5.404;2023-08-12T11:05:08;101636.31;;;20.00;100.00
71974;BME280;59840;52.122;5.404;2023-08-12T11:07:39;101636.59;;;19.98;100.00
71974;BME280;59840;52.122;5.404;2023-08-12T11:10:18;101630.59;;;20.06;100.00
71974;BME280;59840;52.122;5.404;2023-08-12T11:15:29;101630.66;;;20.01;100.00
71974;BME280;59840;52.122;5.404;2023-08-12T11:17:56;101626.38;;;20.00;100.00
71974;BME280;59840;52.122;5.404;2023-08-12T11:20:23;101633.47;;;20.10;100.00
71974;BME280;59840;52.122;5.404;2023-08-12T11:22:52;101626.66;;;20.18;100.00
71974;BME280;59840;52.122;5.404;2023-08-12T11:25:19;101625.88;;;20.17;100.00
71974;BME280;59840;52.122;5.404;2023-08-12T11:27:47;101621.47;;;20.07;100.00
71974;BME280;59840;52.122;5.404;2023-08-12T11:30:16;101621.53;;;20.02;100.00
71974;BME280;59840;52.122;5.404;2023-08-12T11:32:43;101624.44;;;20.06;100.00
71974;BME280;59840;52.122;5.404;2023-08-12T11:35:12;101625.81;;;20.03;100.00
71974;BME280;59840;52.122;5.404;2023-08-12T11:37:49;101638.06;;;20.10;100.00
71974;BME280;59840;52.122;5.404;2023-08-12T11:40:17;101629.06;;;20.00;96.41
71974;BME280;59840;52.122;5.404;2023-08-12T11:42:45;101628.91;;;19.92;100.00
71974;BME280;59840;52.122;5.404;2023-08-12T11:45:15;101628.03;;;20.15;100.00
71974;BME280;59840;52.122;5.404;2023-08-12T11:47:42;101641.13;;;20.40;100.00
71974;BME280;59840;52.122;5.404;2023-08-12T11:50:11;101627.06;;;20.49;100.00
71974;BME280;59840;52.122;5.404;2023-08-12T11:52:39;101628.28;;;20.56;100.00
71974;BME280;59840;52.122;5.404;2023-08-12T11:55:06;101628.44;;;20.46;100.00
71974;BME280;59840;52.122;5.404;2023-08-12T11:57:33;101637.97;;;20.33;100.00
71974;BME280;59840;52.122;5.404;2023-08-12T12:00:03;101629.63;;;20.40;100.00
71974;BME280;59840;52.122;5.404;2023-08-12T12:05:13;101627.47;;;20.74;98.39
71974;BME280;59840;52.122;5.404;2023-08-12T12:07:40;101633.00;;;20.97;96.65
71974;BME280;59840;52.122;5.404;2023-08-12T12:10:07;101629.03;;;21.08;98.93
71974;BME280;59840;52.122;5.404;2023-08-12T12:12:37;101636.31;;;21.07;96.33
71974;BME280;59840;52.122;5.404;2023-08-12T12:15:05;101642.41;;;20.94;94.22
71974;BME280;59840;52.122;5.404;2023-08-12T12:17:39;101632.13;;;20.83;93.47
71974;BME280;59840;52.122;5.404;2023-08-12T12:20:08;101645.75;;;20.86;92.00
71974;BME280;59840;52.122;5.404;2023-08-12T12:22:43;101635.03;;;20.86;93.57
71974;BME280;59840;52.122;5.404;2023-08-12T12:25:12;101634.97;;;20.91;89.23
71974;BME280;59840;52.122;5.404;2023-08-12T12:28:02;101637.56;;;20.96;86.37
71974;BME280;59840;52.122;5.404;2023-08-12T12:30:37;101646.69;;;20.95;89.26
71974;BME280;59840;52.122;5.404;2023-08-12T12:33:03;101639.19;;;21.11;90.88
71974;BME280;59840;52.122;5.404;2023-08-12T12:35:30;101636.75;;;21.28;93.44
71974;BME280;59840;52.122;5.404;2023-08-12T12:38:06;101631.78;;;21.49;90.91
71974;BME280;59840;52.122;5.404;2023-08-12T12:40:35;101647.00;;;21.67;87.50
71974;BME280;59840;52.122;5.404;2023-08-12T12:43:02;101634.69;;;21.80;84.80
71974;BME280;59840;52.122;5.404;2023-08-12T12:45:29;101640.41;;;21.87;82.02
71974;BME280;59840;52.122;5.404;2023-08-12T12:47:55;101628.19;;;21.95;90.84
71974;BME280;59840;52.122;5.404;2023-08-12T12:50:23;101633.47;;;21.86;86.93
71974;BME280;59840;52.122;5.404;2023-08-12T12:52:49;101636.03;;;21.91;90.20
71974;BME280;59840;52.122;5.404;2023-08-12T12:55:16;101635.66;;;21.84;86.86
71974;BME280;59840;52.122;5.404;2023-08-12T12:57:43;101627.13;;;21.82;84.83
71974;BME280;59840;52.122;5.404;2023-08-12T13:00:10;101633.75;;;21.98;81.69
71974;BME280;59840;52.122;5.404;2023-08-12T13:02:38;101619.41;;;22.17;80.56
71974;BME280;59840;52.122;5.404;2023-08-12T13:05:07;101632.13;;;22.25;79.03
71974;BME280;59840;52.122;5.404;2023-08-12T13:07:35;101625.41;;;22.36;77.62
71974;BME280;59840;52.122;5.404;2023-08-12T13:10:04;101636.56;;;22.43;73.46
71974;BME280;59840;52.122;5.404;2023-08-12T13:12:33;101635.16;;;22.46;79.55
71974;BME280;59840;52.122;5.404;2023-08-12T13:15:00;101629.34;;;22.52;73.13
71974;BME280;59840;52.122;5.404;2023-08-12T13:17:27;101637.28;;;22.57;75.67
71974;BME280;59840;52.122;5.404;2023-08-12T13:19:54;101638.06;;;22.58;73.40
71974;BME280;59840;52.122;5.404;2023-08-12T13:22:21;101635.88;;;22.60;71.92
71974;BME280;59840;52.122;5.404;2023-08-12T13:24:48;101645.72;;;22.64;70.29